Time;durP1;ratioP1;P1;durP2;ratioP2;P2;SDS_P1;SDS_P2;PMS_P1;PMS_P2;Temp;Humidity;BMP_temperature;BMP_pressure;BME280_temperature;BME280_humidity;BME280_pressure;Samples;Min_cycle;Max_cycle;Signal;HPM_P1;HPM_P2
2022/12/29 00:00:20;;;;;;;4.13;2.33;;;;;;;8.41;86.90;100147.84;4977586;28;20625;-71
2022/12/29 00:02:49;;;;;;;2.22;1.70;;;;;;;8.45;86.95;100143.69;4962617;28;20195;-71
2022/12/29 00:05:18;;;;;;;1.90;1.50;;;;;;;8.45;86.45;100134.78;4973107;28;20635;-71
2022/12/29 00:07:47;;;;;;;2.40;1.83;;;;;;;8.46;86.54;100133.75;4971082;28;20183;-70
2022/12/29 00:10:16;;;;;;;2.10;1.38;;;;;;;8.57;85.83;100136.63;4965168;28;20185;-69
2022/12/29 00:15:39;;;;;;;2.28;1.60;;;;;;;8.55;86.28;100129.78;4956477;28;20294;-72
2022/12/29 00:18:09;;;;;;;4.63;1.70;;;;;;;8.53;85.77;100130.00;4965561;28;20552;-71
2022/12/29 00:44:04;;;;;;;2.65;1.30;;;;;;;8.57;86.07;100104.25;4956142;29;20212;-71
2022/12/29 00:45:44;;;;;;;1.60;1.30;;;;;;;8.51;86.38;100104.28;4951232;28;20232;-70
2022/12/29 00:48:15;;;;;;;2.20;1.23;;;;;;;8.50;85.84;100108.03;4964697;28;20184;-71
2022/12/29 00:50:43;;;;;;;1.40;1.30;;;;;;;8.48;86.21;100104.69;4970366;28;20459;-71
2022/12/29 00:53:12;;;;;;;5.32;1.80;;;;;;;8.53;86.23;100099.50;4955950;29;20614;-71
2022/12/29 00:55:41;;;;;;;1.88;1.35;;;;;;;8.55;86.05;100097.44;4968179;28;20219;-71
2022/12/29 00:58:10;;;;;;;3.78;1.80;;;;;;;8.46;86.71;100096.00;4962544;28;20200;-71
2022/12/29 01:00:39;;;;;;;2.33;1.40;;;;;;;8.47;86.98;100092.28;4975188;28;20238;-72
2022/12/29 01:03:08;;;;;;;2.35;1.80;;;;;;;8.53;87.19;100105.72;4957180;28;20579;-71
2022/12/29 01:05:39;;;;;;;6.37;2.13;;;;;;;8.52;86.73;100100.56;4961385;28;20216;-73
2022/12/29 01:08:08;;;;;;;2.28;2.00;;;;;;;8.40;87.57;100089.56;4963390;28;20502;-71
2022/12/29 01:10:36;;;;;;;4.20;1.50;;;;;;;8.51;87.57;100097.03;4955747;29;20202;-71
2022/12/29 01:13:05;;;;;;;2.38;1.55;;;;;;;8.38;87.52;100098.88;4955816;29;20215;-71
2022/12/29 01:15:34;;;;;;;3.33;1.88;;;;;;;8.37;87.85;100083.75;4943891;28;20227;-70
2022/12/29 01:18:03;;;;;;;3.00;2.13;;;;;;;8.44;87.37;100096.19;4961121;28;20727;-71
2022/12/29 01:20:32;;;;;;;4.13;2.08;;;;;;;8.47;87.35;100092.28;4962808;28;20208;-70
2022/12/29 01:23:03;;;;;;;2.65;1.63;;;;;;;8.44;87.27;100093.50;4963844;28;20213;-71
2022/12/29 01:25:32;;;;;;;3.10;1.50;;;;;;;8.48;87.54;100094.72;4962034;28;20224;-71
2022/12/29 01:28:01;;;;;;;2.30;1.90;;;;;;;8.48;87.57;100088.50;4967699;28;20192;-71
2022/12/29 01:30:30;;;;;;;4.97;1.90;;;;;;;8.46;87.02;100093.28;4974419;28;20426;-70
2022/12/29 01:33:00;;;;;;;2.20;1.90;;;;;;;8.54;86.40;100082.28;4938122;29;20196;-70
2022/12/29 01:35:29;;;;;;;4.17;2.23;;;;;;;8.61;86.22;100089.34;4953937;28;20230;-71
2022/12/29 01:37:59;;;;;;;3.23;1.70;;;;;;;8.57;86.20;100088.09;4946244;28;20474;-72
2022/12/29 01:40:30;;;;;;;3.10;1.83;;;;;;;8.64;85.99;100088.94;4954213;28;20436;-72
2022/12/29 01:43:00;;;;;;;1.50;1.20;;;;;;;8.63;86.54;100086.44;4971673;28;20261;-69
2022/12/29 01:45:29;;;;;;;3.80;1.70;;;;;;;8.57;86.47;100088.09;4974865;28;20440;-71
2022/12/29 01:48:02;;;;;;;1.80;1.60;;;;;;;8.58;86.53;100089.75;4955615;28;20218;-70
2022/12/29 01:50:37;;;;;;;2.58;2.08;;;;;;;8.60;86.44;100092.25;4960275;28;20657;-71
2022/12/29 01:53:11;;;;;;;2.70;1.70;;;;;;;8.59;86.94;100090.59;4946195;28;20207;-71
2022/12/29 01:55:45;;;;;;;8.60;2.22;;;;;;;8.56;87.53;100080.22;4971799;28;20211;-72
2022/12/29 01:58:16;;;;;;;3.50;1.77;;;;;;;8.61;87.99;100073.19;4961533;28;20211;-71
2022/12/29 02:00:46;;;;;;;2.53;1.50;;;;;;;8.52;88.17;100073.59;4949546;28;20266;-71
2022/12/29 02:03:16;;;;;;;7.18;1.95;;;;;;;8.41;88.76;100060.75;4954694;28;20950;-71
2022/12/29 02:05:53;;;;;;;1.98;1.63;;;;;;;8.45;89.29;100056.59;4943945;29;20223;-72
2022/12/29 02:08:26;;;;;;;4.43;1.85;;;;;;;8.37;90.04;100059.50;4961019;28;20615;-71
2022/12/29 02:10:57;;;;;;;2.17;1.98;;;;;;;8.53;89.51;100059.06;4954831;29;20432;-71
2022/12/29 02:13:27;;;;;;;3.53;1.90;;;;;;;8.48;89.47;100056.97;4953488;29;20551;-71
2022/12/29 02:16:10;;;;;;;5.00;2.28;;;;;;;8.40;89.75;100048.28;4953505;29;20215;-72
2022/12/29 02:18:51;;;;;;;4.70;1.70;;;;;;;8.28;90.76;100045.34;4953331;28;20223;-71
2022/12/29 02:21:57;;;;;;;1.50;1.40;;;;;;;8.32;90.05;100041.25;4941309;28;20210;-71
2022/12/29 02:24:58;;;;;;;2.70;1.65;;;;;;;8.37;89.72;100038.78;4942377;28;20298;-70
2022/12/29 02:28:03;;;;;;;3.17;1.45;;;;;;;8.43;89.21;100032.50;4953653;29;20255;-71
2022/12/29 02:30:43;;;;;;;2.15;1.35;;;;;;;8.50;88.56;100036.06;4948865;29;20219;-72
2022/12/29 02:33:26;;;;;;;1.40;1.20;;;;;;;8.60;87.23;100025.66;4941025;29;20200;-71
2022/12/29 02:36:07;;;;;;;1.40;1.10;;;;;;;8.63;85.93;100032.50;4954288;28;20219;-70
2022/12/29 02:38:54;;;;;;;2.55;1.40;;;;;;;8.60;85.81;100022.13;4953996;28;20263;-70
2022/12/29 02:41:32;;;;;;;3.22;1.75;;;;;;;8.55;86.01;100030.03;4942194;29;20699;-71
2022/12/29 02:44:09;;;;;;;2.40;1.58;;;;;;;8.66;84.85;100021.31;4960895;28;20713;-70
2022/12/29 02:46:46;;;;;;;6.00;1.50;;;;;;;8.74;83.90;100021.06;4928910;29;20274;-70
2022/12/29 02:49:21;;;;;;;3.10;1.60;;;;;;;8.76;83.81;100021.69;4967654;28;20223;-71
2022/12/29 02:51:56;;;;;;;2.88;1.65;;;;;;;8.89;83.07;100028.91;4956822;28;20245;-70
2022/12/29 02:54:43;;;;;;;2.70;1.80;;;;;;;8.87;82.43;100018.31;4944202;28;20386;-72
2022/12/29 02:57:28;;;;;;;2.45;1.45;;;;;;;8.93;82.18;100014.78;4953593;29;20217;-71
2022/12/29 03:00:02;;;;;;;2.35;1.73;;;;;;;8.96;81.53;100019.75;4962093;28;20195;-69
2022/12/29 03:02:59;;;;;;;2.42;1.60;;;;;;;8.87;82.19;100012.94;4958290;28;20677;-70
2022/12/29 03:06:02;;;;;;;3.38;2.58;;;;;;;9.07;81.33;100018.25;4974731;28;20220;-69
2022/12/29 03:08:43;;;;;;;2.13;1.30;;;;;;;9.04;80.59;100006.03;4956056;29;20196;-70
2022/12/29 03:17:00;;;;;;;11.10;1.87;;;;;;;9.24;79.25;99989.75;4949331;29;20430;-71
2022/12/29 03:19:36;;;;;;;1.60;1.30;;;;;;;9.20;79.32;99977.69;4964479;28;20446;-72
2022/12/29 03:25:26;;;;;;;2.42;1.98;;;;;;;9.41;78.63;99998.16;4963160;28;20291;-71
2022/12/29 03:28:00;;;;;;;1.97;1.30;;;;;;;9.57;77.90;99984.16;4951425;29;20211;-71
2022/12/29 03:30:34;;;;;;;2.20;1.30;;;;;;;9.43;78.34;99982.59;4944938;28;20850;-71
2022/12/29 03:33:07;;;;;;;2.70;2.10;;;;;;;9.41;78.09;99981.97;4948259;29;20527;-71
2022/12/29 03:35:41;;;;;;;2.37;1.40;;;;;;;9.57;77.10;99981.47;4944052;29;20468;-71
2022/12/29 03:38:16;;;;;;;3.00;1.60;;;;;;;9.53;77.40;99985.63;4948971;28;20481;-71
2022/12/29 03:40:51;;;;;;;4.70;1.40;;;;;;;9.52;77.92;99981.28;4947292;29;20430;-72
2022/12/29 03:43:21;;;;;;;1.53;1.10;;;;;;;9.47;77.58;99979.22;4980679;28;20405;-71
2022/12/29 03:45:50;;;;;;;1.80;1.40;;;;;;;9.54;77.71;99965.66;4988161;23;20498;-79
2022/12/29 03:48:19;;;;;;;1.97;1.67;;;;;;;9.66;77.15;99973.91;4967617;29;20407;-81
2022/12/29 03:50:52;;;;;;;2.33;1.20;;;;;;;9.59;77.67;99973.94;4967343;28;20518;-78
2022/12/29 03:53:21;;;;;;;1.50;1.00;;;;;;;9.60;77.12;99972.91;4950821;29;20417;-80
2022/12/29 03:55:51;;;;;;;1.97;1.17;;;;;;;9.70;77.15;99975.13;4967082;29;20439;-80
2022/12/29 03:58:20;;;;;;;5.07;1.53;;;;;;;9.71;77.00;99982.19;4948094;29;20979;-79
2022/12/29 04:01:03;;;;;;;2.20;1.73;;;;;;;9.72;77.21;99979.28;4947355;29;20488;-81
2022/12/29 04:03:35;;;;;;;3.03;1.50;;;;;;;9.73;77.36;99980.91;4956850;29;20965;-82
2022/12/29 04:06:08;;;;;;;4.97;1.70;;;;;;;9.79;76.97;99974.63;4967486;29;20395;-80
2022/12/29 04:08:42;;;;;;;1.93;1.47;;;;;;;9.75;77.57;99965.31;4949877;29;20844;-80
2022/12/29 04:11:12;;;;;;;1.93;1.50;;;;;;;9.89;76.93;99972.28;4967775;28;20438;-79
2022/12/29 04:13:43;;;;;;;4.27;2.10;;;;;;;9.76;77.79;99974.25;4967197;29;20493;-79
2022/12/29 04:16:16;;;;;;;2.80;1.93;;;;;;;9.85;77.43;99976.47;4951284;29;20426;-80
2022/12/29 04:18:46;;;;;;;3.90;1.53;;;;;;;9.91;76.91;99963.97;4967886;28;20471;-78
2022/12/29 04:21:17;;;;;;;2.90;1.43;;;;;;;9.86;77.27;99966.50;4952572;29;20465;-80
2022/12/29 04:23:46;;;;;;;7.10;1.93;;;;;;;9.89;77.33;99966.88;4954431;29;20430;-80
2022/12/29 04:26:17;;;;;;;3.97;1.73;;;;;;;9.96;76.98;99981.19;4960099;29;20436;-79
2022/12/29 04:28:58;;;;;;;1.73;1.27;;;;;;;9.98;77.08;99987.16;4961798;28;20422;-78
2022/12/29 04:31:51;;;;;;;4.20;1.27;;;;;;;10.02;76.82;99969.47;4972848;28;20501;-79
2022/12/29 04:34:20;;;;;;;2.80;1.53;;;;;;;10.09;76.51;99976.69;4961474;29;20422;-78
2022/12/29 04:36:52;;;;;;;5.50;1.40;;;;;;;10.02;76.90;99953.25;4961194;29;20448;-78
2022/12/29 04:39:21;;;;;;;2.30;1.60;;;;;;;10.03;76.63;99954.91;4977023;29;20450;-77
2022/12/29 04:41:50;;;;;;;2.30;1.40;;;;;;;9.95;76.98;99957.06;4948628;29;20495;-81
2022/12/29 04:44:22;;;;;;;2.43;1.30;;;;;;;9.91;77.01;99951.28;4948242;29;20443;-81
2022/12/29 04:47:30;;;;;;;1.80;1.33;;;;;;;9.97;76.54;99944.97;4907879;29;20492;-81
2022/12/29 04:50:37;;;;;;;2.00;1.30;;;;;;;9.82;77.11;99955.31;4848273;29;20610;-79
2022/12/29 04:53:20;;;;;;;2.67;1.37;;;;;;;9.73;77.70;99948.50;4906273;29;20516;-79
2022/12/29 04:55:51;;;;;;;4.03;1.43;;;;;;;9.77;77.70;99946.19;4949305;29;20422;-79
2022/12/29 04:58:21;;;;;;;3.40;1.50;;;;;;;9.83;77.52;99943.44;4971575;29;20447;-81
2022/12/29 05:00:52;;;;;;;1.80;1.20;;;;;;;9.73;77.77;99953.91;4974669;28;20514;-80
2022/12/29 05:03:24;;;;;;;3.90;1.67;;;;;;;9.63;78.48;99947.34;4975158;29;20444;-79
2022/12/29 05:05:55;;;;;;;2.03;1.17;;;;;;;9.78;78.15;99945.97;4973187;29;20444;-81
2022/12/29 05:08:26;;;;;;;2.43;1.50;;;;;;;9.89;77.73;99939.84;4952898;29;20454;-79
2022/12/29 05:10:59;;;;;;;1.50;1.13;;;;;;;9.82;77.90;99941.78;4969348;28;20475;-79
2022/12/29 05:13:29;;;;;;;1.83;1.20;;;;;;;9.85;77.70;99941.34;4952117;29;20415;-81
2022/12/29 05:15:58;;;;;;;2.47;1.27;;;;;;;9.82;77.91;99941.78;4953102;29;20482;-79
2022/12/29 05:18:29;;;;;;;4.03;1.47;;;;;;;9.85;77.99;99940.50;4954458;29;20503;-80
2022/12/29 05:20:59;;;;;;;2.70;1.30;;;;;;;9.88;77.71;99929.25;4985174;28;20494;-78
2022/12/29 05:23:31;;;;;;;3.77;1.70;;;;;;;9.89;77.93;99929.03;4973820;29;20430;-79
2022/12/29 05:26:03;;;;;;;3.13;1.53;;;;;;;10.03;77.38;99921.63;4976349;28;20494;-80
2022/12/29 05:29:05;;;;;;;2.83;1.37;;;;;;;9.99;77.78;99915.03;4951160;29;20443;-80
2022/12/29 05:31:35;;;;;;;2.67;1.80;;;;;;;9.93;77.85;99916.72;4966776;28;20543;-80
2022/12/29 05:34:06;;;;;;;3.03;1.80;;;;;;;9.96;78.18;99920.88;4965959;29;20407;-78
2022/12/29 05:36:35;;;;;;;4.60;1.53;;;;;;;10.16;77.54;99920.72;4948284;29;20447;-80
2022/12/29 05:39:10;;;;;;;3.33;1.90;;;;;;;10.23;77.40;99913.38;4947913;29;20498;-78
2022/12/29 05:41:39;;;;;;;2.63;1.87;;;;;;;10.13;77.74;99905.75;4965016;28;20499;-79
2022/12/29 05:44:17;;;;;;;2.03;1.60;;;;;;;10.17;77.69;99911.56;4964844;29;20437;-79
2022/12/29 05:47:24;;;;;;;2.60;1.70;;;;;;;10.32;77.43;99912.84;4951875;29;20455;-79
2022/12/29 05:50:12;;;;;;;2.30;1.90;;;;;;;10.25;77.44;99908.56;4965256;28;20563;-78
2022/12/29 05:53:00;;;;;;;1.50;1.30;;;;;;;10.32;77.36;99906.63;4971740;29;20401;-78
2022/12/29 05:55:31;;;;;;;2.33;1.70;;;;;;;10.35;77.08;99901.59;4961073;29;20443;-79
2022/12/29 05:58:01;;;;;;;2.30;1.30;;;;;;;10.39;76.84;99912.78;4960859;29;20464;-79
2022/12/29 06:00:30;;;;;;;3.37;1.80;;;;;;;10.38;77.16;99894.91;4960299;29;20471;-79
2022/12/29 06:03:00;;;;;;;1.77;1.47;;;;;;;10.44;77.24;99892.13;4971974;28;20454;-82
2022/12/29 06:05:30;;;;;;;3.17;1.67;;;;;;;10.42;77.36;99904.22;4977377;29;20393;-80
2022/12/29 06:07:59;;;;;;;4.40;1.80;;;;;;;10.54;77.00;99890.78;4974089;29;20445;-78
2022/12/29 06:10:30;;;;;;;2.47;1.43;;;;;;;10.47;77.16;99885.44;4980856;28;20442;-79
2022/12/29 06:13:09;;;;;;;3.03;2.00;;;;;;;10.59;76.92;99888.22;4967953;29;20425;-79
2022/12/29 06:15:42;;;;;;;1.80;1.20;;;;;;;10.61;76.99;99880.69;4977275;29;20461;-79
2022/12/29 06:18:12;;;;;;;2.53;1.57;;;;;;;10.58;77.21;99894.69;4955712;29;20444;-80
2022/12/29 06:20:49;;;;;;;3.10;2.03;;;;;;;10.68;76.59;99892.28;4965260;28;20475;-80
2022/12/29 06:23:20;;;;;;;2.50;1.53;;;;;;;10.68;76.77;99897.69;4969698;28;20413;-81
2022/12/29 06:25:50;;;;;;;1.73;1.17;;;;;;;10.69;76.49;99892.06;4962653;29;20426;-79
2022/12/29 06:28:19;;;;;;;1.97;1.27;;;;;;;10.76;76.51;99895.50;4952698;29;20807;-79
2022/12/29 06:30:49;;;;;;;2.03;1.60;;;;;;;10.80;75.98;99896.69;4953334;29;21039;-79
2022/12/29 06:33:19;;;;;;;1.80;1.20;;;;;;;10.79;76.29;99891.53;4953119;29;20424;-78
2022/12/29 06:35:48;;;;;;;1.40;1.03;;;;;;;10.72;76.38;99899.72;4965923;29;20507;-81
2022/12/29 06:38:17;;;;;;;2.40;1.47;;;;;;;10.74;76.52;99900.31;4969671;29;20443;-80
2022/12/29 06:40:46;;;;;;;2.83;1.20;;;;;;;10.86;76.30;99905.78;4952607;29;20453;-80
2022/12/29 06:43:23;;;;;;;2.43;1.67;;;;;;;10.86;76.06;99906.59;4969948;29;20390;-81
2022/12/29 06:46:15;;;;;;;1.93;1.20;;;;;;;10.86;76.29;99916.59;4953396;29;20443;-80
2022/12/29 06:48:45;;;;;;;3.93;1.33;;;;;;;10.78;76.58;99906.09;4969606;29;20423;-79
2022/12/29 06:51:14;;;;;;;2.77;1.97;;;;;;;10.81;76.46;99908.34;4969442;28;20418;-79
2022/12/29 06:53:43;;;;;;;2.80;1.60;;;;;;;10.94;76.13;99907.34;4969911;29;20481;-81
2022/12/29 06:56:12;;;;;;;2.00;1.40;;;;;;;10.87;76.16;99902.84;4970054;29;20431;-79
2022/12/29 06:58:42;;;;;;;3.87;1.60;;;;;;;10.86;76.32;99916.59;4970315;29;20410;-81
2022/12/29 07:01:11;;;;;;;1.57;1.40;;;;;;;10.81;76.39;99908.34;4971228;28;20486;-80
2022/12/29 07:03:43;;;;;;;5.07;1.47;;;;;;;10.76;76.80;99922.56;4970396;29;20406;-82
2022/12/29 07:06:12;;;;;;;1.70;1.53;;;;;;;10.79;76.84;99922.13;4971270;29;20420;-79
2022/12/29 07:08:42;;;;;;;4.20;1.27;;;;;;;10.60;77.51;99919.66;4971079;29;20535;-79
2022/12/29 07:11:11;;;;;;;1.83;1.57;;;;;;;10.63;77.69;99911.06;4970638;28;20422;-80
2022/12/29 07:13:41;;;;;;;2.60;1.50;;;;;;;10.51;78.04;99912.84;4970657;29;20416;-79
2022/12/29 07:16:11;;;;;;;1.40;1.30;;;;;;;10.58;77.97;99927.97;4978218;28;20386;-80
2022/12/29 07:18:40;;;;;;;2.17;1.37;;;;;;;10.49;78.58;99929.34;4979444;29;20426;-79
2022/12/29 07:21:09;;;;;;;1.67;1.07;;;;;;;10.58;78.24;99924.44;4975164;29;20486;-80
2022/12/29 07:23:39;;;;;;;2.83;1.47;;;;;;;10.61;78.19;99903.16;4970828;29;20448;-81
2022/12/29 07:26:10;;;;;;;1.90;1.50;;;;;;;10.63;78.15;99917.31;4970343;29;20410;-80
2022/12/29 07:28:40;;;;;;;1.93;1.80;;;;;;;10.61;78.09;99913.16;4969961;29;20413;-80
2022/12/29 07:31:16;;;;;;;1.80;1.50;;;;;;;10.56;78.29;99910.31;4973380;28;20470;-80
2022/12/29 07:33:46;;;;;;;1.63;1.37;;;;;;;10.53;78.39;99914.28;4979447;28;20423;-79
2022/12/29 07:36:16;;;;;;;2.43;1.43;;;;;;;10.46;78.51;99902.72;4979217;29;20431;-78
2022/12/29 07:38:45;;;;;;;3.00;1.20;;;;;;;10.39;79.00;99899.28;4979490;28;20407;-79
2022/12/29 07:41:15;;;;;;;2.00;1.73;;;;;;;10.38;79.01;99898.44;4976532;28;20464;-78
2022/12/29 07:43:47;;;;;;;2.23;1.53;;;;;;;10.35;79.20;99914.28;4971855;28;20407;-80
2022/12/29 07:46:53;;;;;;;1.73;1.50;;;;;;;10.42;79.13;99912.34;4953561;29;20462;-80
2022/12/29 07:49:25;;;;;;;2.33;1.20;;;;;;;10.53;78.58;99900.78;4970841;28;20442;-80
2022/12/29 07:51:55;;;;;;;1.80;1.40;;;;;;;10.54;78.77;99902.44;4972216;28;20433;-80
2022/12/29 07:54:24;;;;;;;2.10;1.90;;;;;;;10.60;78.24;99906.13;4969371;29;20463;-80
2022/12/29 07:56:53;;;;;;;2.47;1.27;;;;;;;10.64;77.99;99910.84;4970138;29;20435;-80
2022/12/29 07:59:22;;;;;;;5.33;1.50;;;;;;;10.68;77.88;99909.34;4973741;28;20443;-78
2022/12/29 08:01:53;;;;;;;1.67;1.13;;;;;;;10.68;78.14;99911.22;4988977;28;20438;-79
2022/12/29 08:04:22;;;;;;;1.70;1.03;;;;;;;10.64;78.17;99916.25;4978368;28;20432;-79
2022/12/29 08:06:52;;;;;;;2.47;1.20;;;;;;;10.66;78.25;99914.13;4960330;29;20434;-80
2022/12/29 08:09:21;;;;;;;1.80;1.27;;;;;;;10.72;78.11;99918.66;4976104;29;20407;-81
2022/12/29 08:11:52;;;;;;;1.63;1.33;;;;;;;10.73;77.92;99914.91;4974263;28;20446;-80
2022/12/29 08:14:21;;;;;;;1.57;1.20;;;;;;;10.75;77.89;99909.25;4969402;29;20446;-81
2022/12/29 08:16:52;;;;;;;2.23;2.00;;;;;;;10.79;77.96;99911.28;4985484;28;20434;-79
2022/12/29 08:19:21;;;;;;;2.33;1.60;;;;;;;10.73;78.24;99914.06;4990310;28;20386;-81
2022/12/29 08:21:52;;;;;;;1.97;1.50;;;;;;;10.73;77.72;99895.94;4988438;28;20449;-81
2022/12/29 08:24:21;;;;;;;1.43;1.27;;;;;;;10.82;77.69;99908.13;4969949;29;20417;-79
2022/12/29 08:26:50;;;;;;;2.10;1.33;;;;;;;10.74;78.24;99916.56;4969237;28;20446;-80
2022/12/29 08:29:21;;;;;;;1.60;1.27;;;;;;;10.72;77.87;99915.94;4970977;29;20481;-80
2022/12/29 08:31:50;;;;;;;1.77;1.67;;;;;;;10.72;78.24;99905.13;4971324;28;20440;-81
2022/12/29 08:34:21;;;;;;;2.20;1.23;;;;;;;10.57;78.65;99912.78;4969983;29;20394;-80
2022/12/29 08:36:50;;;;;;;4.10;1.77;;;;;;;10.65;78.53;99914.38;4969371;29;20409;-81
2022/12/29 08:39:19;;;;;;;1.60;1.03;;;;;;;10.57;78.56;99896.56;4968725;29;20447;-80
2022/12/29 08:41:49;;;;;;;2.67;1.47;;;;;;;10.59;78.80;99896.34;4981268;28;20474;-80
2022/12/29 08:44:18;;;;;;;2.47;1.40;;;;;;;10.57;78.85;99898.44;4951619;29;20443;-80
2022/12/29 08:46:47;;;;;;;3.73;1.60;;;;;;;10.64;78.54;99902.72;4972014;29;20908;-81
2022/12/29 08:49:16;;;;;;;2.73;1.13;;;;;;;10.64;78.59;99908.13;4971503;29;20432;-79
2022/12/29 08:51:47;;;;;;;1.80;1.20;;;;;;;10.75;78.10;99910.06;4970116;28;20430;-81
2022/12/29 08:54:16;;;;;;;1.60;1.17;;;;;;;10.90;77.69;99913.22;4969346;29;20443;-81
2022/12/29 08:56:46;;;;;;;2.70;1.47;;;;;;;11.01;77.29;99910.78;4951828;29;20429;-80
2022/12/29 08:59:17;;;;;;;1.57;1.30;;;;;;;11.13;76.61;99907.09;4966570;29;20447;-81
2022/12/29 09:01:48;;;;;;;2.50;1.33;;;;;;;11.24;75.91;99913.59;4950651;29;20446;-81
2022/12/29 09:04:18;;;;;;;3.70;1.97;;;;;;;11.29;75.99;99901.00;4952881;29;20450;-81
2022/12/29 09:06:48;;;;;;;3.13;1.80;;;;;;;11.25;75.93;99896.28;4968909;29;20444;-80
2022/12/29 09:09:18;;;;;;;2.20;1.47;;;;;;;11.26;75.68;99890.66;4969004;29;20387;-82
2022/12/29 09:11:47;;;;;;;1.83;1.23;;;;;;;11.23;75.66;99893.00;4968665;28;20497;-81
2022/12/29 09:14:16;;;;;;;1.77;1.40;;;;;;;11.13;75.99;99892.72;4968107;29;20444;-79
2022/12/29 09:19:32;;;;;;;1.90;1.37;;;;;;;11.21;75.78;99893.22;4971240;29;20419;-80
2022/12/29 09:22:03;;;;;;;2.23;1.30;;;;;;;11.27;75.65;99888.78;4968282;28;20565;-79
2022/12/29 09:24:32;;;;;;;2.70;1.37;;;;;;;11.34;75.61;99892.19;4969450;29;20395;-80
2022/12/29 09:27:01;;;;;;;1.90;1.70;;;;;;;11.41;75.34;99892.94;4968714;29;20439;-81
2022/12/29 09:29:31;;;;;;;1.77;1.23;;;;;;;11.52;74.79;99889.41;4968916;29;20973;-81
2022/12/29 09:32:00;;;;;;;1.50;1.20;;;;;;;11.66;74.19;99880.03;4951789;29;20449;-78
2022/12/29 09:34:29;;;;;;;3.23;1.17;;;;;;;11.76;73.96;99876.78;4969116;29;20421;-80
2022/12/29 09:36:59;;;;;;;2.17;1.33;;;;;;;11.88;73.23;99883.00;4971047;29;20390;-78
2022/12/29 09:39:31;;;;;;;3.83;1.77;;;;;;;11.84;73.21;99876.41;4953351;29;20451;-80
2022/12/29 09:42:06;;;;;;;2.47;1.23;;;;;;;11.75;73.50;99867.81;4970826;28;20455;-79
2022/12/29 09:44:49;;;;;;;4.00;1.30;;;;;;;11.75;73.54;99851.53;4954112;29;20557;-79
2022/12/29 09:47:22;;;;;;;1.20;1.00;;;;;;;11.86;73.67;99857.22;4975918;29;20434;-78
2022/12/29 09:49:55;;;;;;;4.27;1.40;;;;;;;12.09;72.78;99868.03;4960041;28;20485;-78
2022/12/29 09:52:29;;;;;;;1.60;1.20;;;;;;;12.25;72.00;99864.59;4976801;29;20446;-78
2022/12/29 09:55:04;;;;;;;1.37;1.00;;;;;;;12.17;71.83;99878.53;4976077;29;20723;-78
2022/12/29 09:57:46;;;;;;;1.83;1.20;;;;;;;12.24;71.93;99876.53;4976544;29;20414;-79
2022/12/29 10:00:18;;;;;;;2.80;1.50;;;;;;;12.24;71.99;99881.13;4954758;29;20482;-80
2022/12/29 10:02:53;;;;;;;1.63;1.03;;;;;;;12.26;71.78;99879.81;4968303;29;20426;-80
2022/12/29 10:05:32;;;;;;;3.80;1.67;;;;;;;12.40;71.60;99886.63;4968711;29;20382;-79
2022/12/29 10:08:15;;;;;;;2.60;1.47;;;;;;;12.45;71.40;99883.19;4952155;29;20433;-81
2022/12/29 10:10:54;;;;;;;3.13;2.13;;;;;;;12.32;71.73;99872.63;4969066;28;20455;-80
2022/12/29 10:13:42;;;;;;;2.77;1.73;;;;;;;12.17;72.22;99881.22;4969784;29;20427;-80
2022/12/29 10:16:14;;;;;;;3.40;1.87;;;;;;;12.05;72.89;99885.84;4969150;29;20845;-80
2022/12/29 10:19:14;;;;;;;3.77;1.40;;;;;;;12.10;72.90;99881.34;4969169;29;20410;-80
2022/12/29 10:22:00;;;;;;;2.47;1.40;;;;;;;12.12;73.03;99883.84;4969613;28;20476;-80
2022/12/29 10:24:32;;;;;;;2.27;1.80;;;;;;;12.26;72.57;99873.56;4968612;29;20422;-80
2022/12/29 10:27:04;;;;;;;3.00;1.10;;;;;;;12.39;71.90;99865.97;4950996;29;20456;-79
2022/12/29 10:29:38;;;;;;;3.00;2.03;;;;;;;12.74;71.67;99881.34;4967628;29;20614;-79
2022/12/29 10:32:23;;;;;;;1.50;1.03;;;;;;;12.89;70.24;99874.34;4952247;29;20437;-80
2022/12/29 10:35:05;;;;;;;2.43;1.57;;;;;;;12.88;70.15;99867.25;4971589;29;20423;-80
2022/12/29 10:37:44;;;;;;;2.53;1.40;;;;;;;13.01;69.82;99866.16;4950937;29;20477;-80
2022/12/29 10:40:22;;;;;;;2.67;1.77;;;;;;;13.13;69.21;99864.25;4967260;28;20469;-80
2022/12/29 10:42:55;;;;;;;5.37;1.60;;;;;;;13.29;69.19;99876.22;4966931;29;20488;-80
2022/12/29 10:45:28;;;;;;;5.30;1.33;;;;;;;13.29;68.54;99865.34;4967275;29;20439;-79
2022/12/29 10:48:02;;;;;;;2.53;1.43;;;;;;;13.43;67.90;99858.53;4949032;29;20426;-80
2022/12/29 10:50:31;;;;;;;2.20;1.60;;;;;;;13.59;67.46;99860.44;4970166;28;20499;-79
2022/12/29 10:53:06;;;;;;;2.90;1.83;;;;;;;13.51;67.90;99866.25;4971095;29;20486;-80
2022/12/29 10:55:39;;;;;;;6.10;2.20;;;;;;;13.49;67.70;99843.97;4970296;29;20430;-81
2022/12/29 10:58:14;;;;;;;3.00;1.50;;;;;;;13.53;67.84;99855.97;4968447;29;20418;-80
2022/12/29 11:00:50;;;;;;;4.13;1.90;;;;;;;13.65;67.62;99861.34;4971269;28;20446;-79
2022/12/29 11:03:58;;;;;;;4.07;1.47;;;;;;;13.43;67.78;99848.50;4970915;29;20520;-81
2022/12/29 11:06:29;;;;;;;2.67;1.10;;;;;;;13.45;67.95;99845.53;4969752;29;20433;-79
2022/12/29 11:09:02;;;;;;;4.00;1.80;;;;;;;13.36;68.51;99847.81;4971223;29;20515;-80
2022/12/29 11:11:37;;;;;;;2.37;1.43;;;;;;;13.38;68.55;99853.00;4970293;28;20434;-79
2022/12/29 11:14:14;;;;;;;3.53;1.13;;;;;;;13.23;68.42;99848.13;4972065;29;20474;-81
2022/12/29 11:16:57;;;;;;;3.03;1.33;;;;;;;13.27;68.10;99849.28;4971256;29;20816;-80
2022/12/29 11:19:37;;;;;;;2.60;1.07;;;;;;;13.14;68.77;99848.78;4970387;29;20450;-81
2022/12/29 11:22:24;;;;;;;2.40;1.20;;;;;;;13.15;68.97;99853.13;4970319;28;20453;-80
2022/12/29 11:25:06;;;;;;;5.47;1.67;;;;;;;13.15;69.09;99848.53;4953036;29;20425;-81
2022/12/29 11:27:36;;;;;;;2.43;1.53;;;;;;;13.34;68.94;99852.69;4969030;29;20788;-79
2022/12/29 11:30:27;;;;;;;3.10;1.43;;;;;;;13.36;68.68;99860.59;4979166;28;20435;-78
2022/12/29 11:33:03;;;;;;;3.23;1.50;;;;;;;13.21;68.53;99844.03;4968538;29;20424;-80
2022/12/29 11:35:38;;;;;;;2.67;1.70;;;;;;;13.10;69.30;99878.28;4973102;29;20446;-80
2022/12/29 11:38:28;;;;;;;1.50;0.97;;;;;;;13.00;69.94;99865.34;4975040;29;20402;-79
2022/12/29 11:41:11;;;;;;;1.77;1.60;;;;;;;13.03;70.16;99858.59;4974625;28;20832;-79
2022/12/29 11:44:01;;;;;;;3.67;1.40;;;;;;;12.98;70.65;99859.31;4973650;29;20509;-81
2022/12/29 11:46:34;;;;;;;4.33;1.77;;;;;;;12.93;71.59;99870.06;4973939;29;20435;-79
2022/12/29 11:49:04;;;;;;;2.83;1.30;;;;;;;12.85;71.62;99878.63;4958544;29;20428;-80
2022/12/29 11:51:40;;;;;;;1.40;1.00;;;;;;;12.84;71.99;99868.81;4976441;28;20469;-81
2022/12/29 11:54:20;;;;;;;4.00;0.97;;;;;;;12.68;72.84;99871.50;4976838;29;20434;-80
2022/12/29 11:56:53;;;;;;;1.63;1.10;;;;;;;12.70;73.29;99874.78;4959008;29;20411;-80
2022/12/29 11:59:47;;;;;;;1.33;0.80;;;;;;;12.69;73.20;99870.41;4975957;28;20506;-79
2022/12/29 12:02:50;;;;;;;2.13;1.20;;;;;;;12.51;73.52;99864.09;4968904;28;20411;-79
2022/12/29 12:05:34;;;;;;;2.37;1.20;;;;;;;12.46;75.07;99882.97;4973341;29;20418;-80
2022/12/29 12:08:11;;;;;;;1.50;0.90;;;;;;;12.23;76.32;99880.28;4968223;28;20431;-81
2022/12/29 12:10:58;;;;;;;2.20;0.80;;;;;;;12.05;78.38;99872.28;4964568;28;20632;-80
2022/12/29 12:13:38;;;;;;;1.87;1.03;;;;;;;11.91;79.49;99871.69;4974704;29;20406;-78
2022/12/29 12:16:17;;;;;;;1.47;1.03;;;;;;;11.76;80.63;99879.47;4957841;29;20413;-78
2022/12/29 12:19:08;;;;;;;1.53;1.27;;;;;;;11.70;80.87;99892.03;4959809;29;20669;-78
2022/12/29 12:21:43;;;;;;;1.93;1.27;;;;;;;11.54;82.96;99898.13;4959350;28;20458;-79
2022/12/29 12:24:38;;;;;;;1.63;1.07;;;;;;;11.45;83.58;99896.81;4976638;29;20473;-78
2022/12/29 12:27:17;;;;;;;2.17;1.17;;;;;;;11.34;84.35;99876.75;4977614;29;20391;-78
2022/12/29 12:30:00;;;;;;;2.60;1.23;;;;;;;11.44;84.48;99886.22;4977284;28;20446;-78
2022/12/29 12:32:42;;;;;;;1.03;0.77;;;;;;;11.39;83.01;99878.78;4976073;29;20394;-79
2022/12/29 12:35:17;;;;;;;1.57;1.10;;;;;;;11.31;83.14;99877.25;4975671;29;20460;-78
2022/12/29 12:38:16;;;;;;;3.20;1.53;;;;;;;11.41;82.14;99873.97;4975861;28;20477;-78
2022/12/29 12:41:09;;;;;;;3.20;1.60;;;;;;;11.49;81.69;99875.50;4962038;29;20467;-79
2022/12/29 12:43:48;;;;;;;2.10;1.13;;;;;;;11.42;81.88;99875.63;4954481;29;20456;-79
2022/12/29 12:46:52;;;;;;;1.30;0.80;;;;;;;11.46;81.80;99871.38;4951231;29;20418;-80